createdAt,value
2019-04-30T00:01:01.924Z,27.06
2019-04-30T00:03:50.490Z,27.09
2019-04-30T00:06:27.319Z,27.10
2019-04-30T00:08:55.440Z,27.16
2019-04-30T00:11:27.328Z,27.19
2019-04-30T00:13:58.953Z,27.21
2019-04-30T00:16:31.120Z,27.24
2019-04-30T00:19:01.418Z,27.25
2019-04-30T00:21:31.769Z,27.27
2019-04-30T00:24:10.269Z,27.30
2019-04-30T00:26:39.826Z,27.34
2019-04-30T00:29:19.203Z,27.36
2019-04-30T00:31:47.066Z,27.43
2019-04-30T00:34:18.297Z,27.44
2019-04-30T00:36:48.600Z,27.50
2019-04-30T00:39:18.953Z,27.55
2019-04-30T00:41:49.499Z,27.60
2019-04-30T00:44:23.846Z,27.61
2019-04-30T00:46:52.893Z,27.65
2019-04-30T00:49:26.619Z,27.67
2019-04-30T00:51:58.112Z,27.71
2019-04-30T00:54:30.853Z,27.73
2019-04-30T00:57:05.517Z,27.76
2019-04-30T00:59:35.043Z,27.79
2019-04-30T01:02:19.999Z,27.78
2019-04-30T01:04:52.520Z,27.81
2019-04-30T01:07:23.193Z,27.86
2019-04-30T01:09:55.227Z,27.89
2019-04-30T01:12:29.681Z,27.92
2019-04-30T01:17:38.260Z,28.01
2019-04-30T01:20:09.722Z,28.08
2019-04-30T01:22:41.432Z,28.12
2019-04-30T01:25:13.598Z,28.15
2019-04-30T01:27:49.114Z,28.18
2019-04-30T01:30:22.770Z,28.22
2019-04-30T01:32:56.878Z,28.24
2019-04-30T01:35:28.285Z,28.28
2019-04-30T01:37:56.902Z,28.31
2019-04-30T01:40:31.072Z,28.37
2019-04-30T01:43:01.842Z,28.40
2019-04-30T01:45:32.176Z,28.42
2019-04-30T01:48:08.951Z,28.45
2019-04-30T01:50:42.245Z,28.48
2019-04-30T01:53:13.376Z,28.51
2019-04-30T01:56:01.755Z,28.56
2019-04-30T01:58:43.072Z,28.58
2019-04-30T02:01:18.999Z,28.59
2019-04-30T02:03:49.392Z,28.64
2019-04-30T02:06:19.856Z,28.65
2019-04-30T02:08:50.188Z,28.67
2019-04-30T02:11:20.865Z,28.71
2019-04-30T02:13:51.238Z,28.73
2019-04-30T02:16:21.969Z,28.77
2019-04-30T02:18:52.710Z,28.82
2019-04-30T02:21:23.054Z,28.87
2019-04-30T02:23:53.466Z,28.92
2019-04-30T02:26:23.809Z,28.93
2019-04-30T02:28:54.159Z,28.93
2019-04-30T02:31:26.891Z,28.95
2019-04-30T02:34:05.093Z,28.97
2019-04-30T02:36:42.780Z,28.99
2019-04-30T02:39:13.113Z,29.02
2019-04-30T02:41:45.516Z,29.05
2019-04-30T02:44:19.556Z,29.10
2019-04-30T02:46:52.173Z,29.14
2019-04-30T02:49:24.383Z,29.18
2019-04-30T02:51:59.410Z,29.21
2019-04-30T02:54:30.995Z,29.28
2019-04-30T02:57:13.190Z,29.28
2019-04-30T03:00:01.672Z,29.32
2019-04-30T03:02:39.170Z,29.38
2019-04-30T03:05:12.894Z,29.40
2019-04-30T03:07:42.753Z,29.38
2019-04-30T03:10:15.193Z,29.41
2019-04-30T03:12:46.409Z,29.45
2019-04-30T03:15:19.502Z,29.48
2019-04-30T03:18:09.920Z,29.51
2019-04-30T03:20:51.310Z,29.55
2019-04-30T03:23:21.702Z,29.57
2019-04-30T03:25:52.198Z,29.59
2019-04-30T03:28:22.472Z,29.62
2019-04-30T03:30:57.846Z,29.64
2019-04-30T03:33:27.085Z,29.71
2019-04-30T03:36:01.857Z,29.76
2019-04-30T03:38:30.099Z,29.81
2019-04-30T03:41:00.653Z,29.85
2019-04-30T03:43:31.036Z,29.91
2019-04-30T03:46:02.690Z,29.95
2019-04-30T03:48:34.418Z,30.02
2019-04-30T03:51:05.067Z,30.11
2019-04-30T03:53:35.680Z,30.17
2019-04-30T03:56:05.985Z,30.24
2019-04-30T03:58:43.222Z,30.33
2019-04-30T04:01:30.657Z,30.39
2019-04-30T04:04:26.076Z,30.44
2019-04-30T04:07:05.557Z,30.50
2019-04-30T04:09:41.697Z,30.56
2019-04-30T04:12:21.213Z,30.62
2019-04-30T04:14:51.605Z,30.67
2019-04-30T04:17:26.539Z,30.73
2019-04-30T04:19:59.585Z,30.78
2019-04-30T04:22:36.489Z,30.85
2019-04-30T04:25:10.102Z,30.91
2019-04-30T04:27:41.841Z,30.98
2019-04-30T04:30:12.290Z,31.07
2019-04-30T04:32:43.129Z,31.13
2019-04-30T04:35:13.435Z,31.20
2019-04-30T04:37:43.736Z,31.25
2019-04-30T04:40:14.494Z,31.32
2019-04-30T04:42:45.291Z,31.39
2019-04-30T04:45:15.615Z,31.44
2019-04-30T04:47:50.534Z,31.51
2019-04-30T04:50:21.498Z,31.54
2019-04-30T04:52:51.801Z,31.61
2019-04-30T04:55:23.506Z,31.66
2019-04-30T04:57:55.673Z,31.74
2019-04-30T05:00:26.479Z,31.82
2019-04-30T05:03:19.993Z,31.92
2019-04-30T05:05:59.986Z,32.03
2019-04-30T05:08:31.180Z,32.13
2019-04-30T05:11:01.851Z,32.23
2019-04-30T05:13:34.688Z,32.32
2019-04-30T05:16:04.856Z,32.44
2019-04-30T05:18:35.505Z,32.52
2019-04-30T05:21:06.343Z,32.59
2019-04-30T05:23:36.771Z,32.70
2019-04-30T05:26:11.029Z,32.77
2019-04-30T05:28:42.023Z,32.85
2019-04-30T05:31:12.573Z,32.94
2019-04-30T05:33:43.643Z,33.02
2019-04-30T05:36:14.010Z,33.10
2019-04-30T05:38:44.321Z,33.21
2019-04-30T05:41:14.589Z,33.41
2019-04-30T05:43:44.949Z,33.58
2019-04-30T05:46:15.515Z,33.82
2019-04-30T05:48:49.494Z,34.01
2019-04-30T05:51:21.284Z,34.11
2019-04-30T05:53:52.302Z,34.24
2019-04-30T05:56:22.860Z,34.34
2019-04-30T05:58:53.946Z,34.45
2019-04-30T06:01:29.359Z,34.56
2019-04-30T06:03:59.570Z,34.66
2019-04-30T06:06:29.967Z,34.80
2019-04-30T06:09:14.460Z,34.86
2019-04-30T06:12:13.711Z,34.99
2019-04-30T06:14:49.910Z,35.03
2019-04-30T06:17:20.698Z,35.12
2019-04-30T06:19:51.459Z,35.17
2019-04-30T06:22:23.306Z,35.23
2019-04-30T06:24:53.645Z,35.29
2019-04-30T06:27:26.135Z,35.34
2019-04-30T06:29:59.896Z,35.31
2019-04-30T06:32:35.392Z,35.40
2019-04-30T06:35:05.586Z,35.43
2019-04-30T06:37:36.272Z,35.43
2019-04-30T06:40:09.440Z,35.40
2019-04-30T06:42:41.112Z,35.39
2019-04-30T06:45:11.822Z,35.42
2019-04-30T06:47:46.174Z,35.42
2019-04-30T06:50:19.358Z,35.40
2019-04-30T06:52:56.806Z,35.45
2019-04-30T06:55:26.076Z,35.52
2019-04-30T06:58:11.490Z,35.44
2019-04-30T07:00:39.625Z,35.40
2019-04-30T07:03:12.009Z,35.40
2019-04-30T07:05:42.355Z,35.42
2019-04-30T07:08:39.499Z,35.38
2019-04-30T07:11:21.734Z,35.35
2019-04-30T07:13:52.726Z,35.35
2019-04-30T07:16:23.507Z,35.35
2019-04-30T07:18:53.850Z,35.36
2019-04-30T07:21:24.163Z,35.33
2019-04-30T07:23:54.495Z,35.24
2019-04-30T07:26:25.561Z,35.18
2019-04-30T07:28:59.802Z,35.21
2019-04-30T07:31:30.153Z,35.08
2019-04-30T07:34:00.441Z,35.10
2019-04-30T07:36:45.178Z,35.00
2019-04-30T07:39:09.825Z,34.98
2019-04-30T07:41:40.713Z,34.93
2019-04-30T07:44:29.424Z,34.92
2019-04-30T07:46:45.198Z,34.87
2019-04-30T07:49:15.231Z,34.82
2019-04-30T07:51:51.167Z,34.67
2019-04-30T07:54:20.410Z,34.57
2019-04-30T07:56:53.862Z,34.43
2019-04-30T07:59:26.050Z,34.35
2019-04-30T08:02:07.651Z,34.22
2019-04-30T08:05:04.415Z,34.10
2019-04-30T08:07:35.971Z,34.09
2019-04-30T08:10:08.767Z,34.01
2019-04-30T08:12:44.071Z,33.95
2019-04-30T08:15:16.005Z,33.95
2019-04-30T08:17:46.327Z,33.92
2019-04-30T08:20:19.667Z,33.88
2019-04-30T08:22:50.486Z,33.88
2019-04-30T08:25:22.008Z,33.77
2019-04-30T08:27:52.845Z,33.75
2019-04-30T08:30:26.634Z,33.70
2019-04-30T08:32:59.560Z,33.60
2019-04-30T08:35:31.383Z,33.58
2019-04-30T08:38:10.749Z,33.46
2019-04-30T08:40:53.249Z,33.41
2019-04-30T08:43:15.972Z,33.26
2019-04-30T08:45:46.354Z,33.21
2019-04-30T08:48:18.848Z,33.17
2019-04-30T08:50:51.398Z,33.15
2019-04-30T08:53:29.295Z,33.10
2019-04-30T08:55:59.878Z,32.99
2019-04-30T08:58:54.793Z,32.96
2019-04-30T09:01:34.520Z,32.91
2019-04-30T09:04:07.587Z,32.75
2019-04-30T09:06:38.926Z,32.69
2019-04-30T09:09:14.822Z,32.02
2019-04-30T09:11:52.906Z,32.02
2019-04-30T09:14:18.706Z,32.29
2019-04-30T09:16:51.299Z,32.28
2019-04-30T09:19:21.842Z,32.16
2019-04-30T09:21:52.134Z,32.01
2019-04-30T09:24:30.701Z,31.84
2019-04-30T09:26:59.320Z,31.67
2019-04-30T09:29:30.809Z,31.56
2019-04-30T09:32:01.472Z,31.53
2019-04-30T09:34:31.997Z,31.43
2019-04-30T09:37:02.432Z,31.37
2019-04-30T09:39:32.754Z,31.44
2019-04-30T09:42:03.108Z,31.32
2019-04-30T09:44:33.437Z,31.26
2019-04-30T09:47:03.726Z,31.15
2019-04-30T09:49:36.365Z,31.08
2019-04-30T09:52:09.350Z,30.96
2019-04-30T09:54:44.926Z,30.93
2019-04-30T09:57:15.403Z,30.82
2019-04-30T09:59:49.751Z,30.62
2019-04-30T10:02:20.226Z,30.46
2019-04-30T10:04:50.863Z,30.31
2019-04-30T10:07:21.924Z,30.09
2019-04-30T10:09:52.344Z,29.92
2019-04-30T10:12:24.680Z,29.79
2019-04-30T10:14:55.328Z,29.68
2019-04-30T10:17:39.351Z,29.61
2019-04-30T10:20:12.337Z,29.56
2019-04-30T10:22:42.647Z,29.53
2019-04-30T10:25:13.404Z,29.49
2019-04-30T10:27:45.325Z,29.46
2019-04-30T10:30:19.245Z,29.49
2019-04-30T10:32:50.074Z,29.54
2019-04-30T10:35:24.056Z,29.60
2019-04-30T10:37:54.843Z,29.63
2019-04-30T10:40:25.192Z,29.69
2019-04-30T10:42:55.982Z,29.64
2019-04-30T10:45:28.809Z,29.48
2019-04-30T10:47:59.333Z,29.32
2019-04-30T10:50:40.909Z,29.19
2019-04-30T10:53:12.475Z,29.06
2019-04-30T10:55:42.923Z,28.94
2019-04-30T10:58:15.394Z,28.80
2019-04-30T11:00:46.014Z,28.68
2019-04-30T11:03:20.766Z,28.56
2019-04-30T11:05:50.053Z,28.41
2019-04-30T11:08:20.709Z,28.19
2019-04-30T11:10:51.295Z,28.04
2019-04-30T11:13:21.627Z,27.93
2019-04-30T11:15:52.526Z,27.87
2019-04-30T11:18:23.091Z,27.80
2019-04-30T11:20:55.235Z,27.68
2019-04-30T11:23:26.188Z,27.60
2019-04-30T11:25:57.079Z,27.57
2019-04-30T11:28:28.197Z,27.52
2019-04-30T11:31:18.255Z,27.52
2019-04-30T11:33:49.096Z,27.52
2019-04-30T11:36:20.271Z,27.53
2019-04-30T11:38:50.610Z,27.53
2019-04-30T11:41:30.001Z,27.51
2019-04-30T11:43:54.414Z,27.50
2019-04-30T11:47:09.903Z,27.53
2019-04-30T11:49:40.245Z,27.51
2019-04-30T11:52:12.671Z,27.49
2019-04-30T11:54:51.647Z,27.49
2019-04-30T11:57:18.609Z,27.52
2019-04-30T11:59:48.728Z,27.53
2019-04-30T12:02:29.247Z,27.56
2019-04-30T12:04:59.387Z,27.60
2019-04-30T12:07:48.315Z,27.65
2019-04-30T12:10:44.377Z,27.71
2019-04-30T12:13:25.139Z,27.76
2019-04-30T12:16:01.734Z,27.78
2019-04-30T12:18:32.083Z,27.80
2019-04-30T12:21:02.463Z,27.79
2019-04-30T12:23:32.977Z,27.80
2019-04-30T12:26:03.314Z,27.84
2019-04-30T12:28:35.962Z,27.83
2019-04-30T12:31:13.577Z,27.83
2019-04-30T12:33:44.052Z,27.84
2019-04-30T12:36:14.654Z,27.85
2019-04-30T12:38:45.142Z,27.86
2019-04-30T12:41:20.247Z,27.87
2019-04-30T12:43:50.746Z,27.91
2019-04-30T12:46:22.046Z,27.97
2019-04-30T12:49:11.303Z,28.03
2019-04-30T12:51:50.524Z,28.09
2019-04-30T12:54:32.548Z,28.13
2019-04-30T12:57:23.554Z,28.19
2019-04-30T12:59:53.846Z,28.28
2019-04-30T13:02:26.263Z,28.41
2019-04-30T13:05:00.258Z,28.49
2019-04-30T13:07:31.409Z,28.56
2019-04-30T13:10:03.398Z,28.62
2019-04-30T13:12:36.671Z,28.63
2019-04-30T13:15:09.275Z,28.68
2019-04-30T13:17:40.486Z,28.79
2019-04-30T13:20:18.550Z,28.95
2019-04-30T13:22:44.392Z,29.04
2019-04-30T13:25:29.538Z,29.03
2019-04-30T13:27:54.222Z,29.02
2019-04-30T13:30:26.391Z,29.07
2019-04-30T13:33:09.430Z,29.11
2019-04-30T13:35:42.417Z,29.15
2019-04-30T13:38:25.150Z,29.26
2019-04-30T13:41:08.855Z,29.28
2019-04-30T13:43:59.841Z,29.36
2019-04-30T13:46:30.265Z,29.40
2019-04-30T13:49:01.375Z,29.48
2019-04-30T13:51:31.700Z,29.52
2019-04-30T13:54:08.010Z,29.58
2019-04-30T13:56:39.682Z,29.67
2019-04-30T13:59:10.068Z,29.87
2019-04-30T14:01:40.338Z,30.04
2019-04-30T14:04:37.625Z,30.20
2019-04-30T14:07:47.271Z,30.38
2019-04-30T14:10:19.445Z,30.47
2019-04-30T14:12:56.639Z,30.70
2019-04-30T14:15:34.821Z,30.74
2019-04-30T14:18:05.143Z,30.79
2019-04-30T14:20:55.718Z,30.82
2019-04-30T14:23:26.077Z,30.91
2019-04-30T14:26:00.935Z,31.01
2019-04-30T14:28:31.093Z,31.14
2019-04-30T14:31:04.101Z,31.21
2019-04-30T14:33:34.457Z,31.31
2019-04-30T14:36:05.701Z,31.36
2019-04-30T14:38:36.306Z,31.37
2019-04-30T14:41:07.753Z,31.37
2019-04-30T14:43:45.639Z,31.38
2019-04-30T14:46:31.437Z,31.36
2019-04-30T14:49:22.338Z,31.35
2019-04-30T14:51:54.555Z,31.37
2019-04-30T14:54:50.492Z,31.40
2019-04-30T14:57:38.336Z,31.46
2019-04-30T15:00:32.078Z,31.48
2019-04-30T15:03:09.504Z,31.53
2019-04-30T15:05:48.516Z,31.66
2019-04-30T15:08:16.836Z,31.67
2019-04-30T15:10:47.402Z,31.67
2019-04-30T15:13:19.490Z,31.64
2019-04-30T15:15:50.710Z,31.63
2019-04-30T15:18:21.012Z,31.60
2019-04-30T15:20:51.328Z,31.62
2019-04-30T15:23:39.919Z,31.64
2019-04-30T15:26:22.226Z,31.65
2019-04-30T15:28:45.730Z,31.60
2019-04-30T15:31:22.156Z,31.57
2019-04-30T15:34:02.982Z,31.62
2019-04-30T15:36:33.188Z,31.64
2019-04-30T15:39:40.553Z,31.66
2019-04-30T15:42:14.741Z,31.67
2019-04-30T15:44:49.647Z,31.72
2019-04-30T15:47:21.264Z,31.73
2019-04-30T15:49:53.089Z,31.77
2019-04-30T15:52:23.381Z,31.74
2019-04-30T15:54:53.645Z,31.76
2019-04-30T15:57:24.021Z,31.75
2019-04-30T15:59:54.375Z,31.75
2019-04-30T16:02:34.995Z,31.74
2019-04-30T16:05:23.940Z,31.78
2019-04-30T16:08:25.777Z,31.76
2019-04-30T16:11:21.750Z,31.77
2019-04-30T16:14:11.095Z,31.73
2019-04-30T16:16:44.058Z,31.77
2019-04-30T16:19:14.355Z,31.78
2019-04-30T16:21:44.885Z,31.80
2019-04-30T16:24:15.540Z,31.79
2019-04-30T16:26:52.069Z,31.76
2019-04-30T16:29:20.475Z,31.77
2019-04-30T16:31:51.114Z,31.76
2019-04-30T16:34:21.493Z,31.76
2019-04-30T16:36:52.950Z,31.77
2019-04-30T16:39:23.433Z,31.77
2019-04-30T16:41:54.519Z,31.76
2019-04-30T16:44:25.349Z,31.73
2019-04-30T16:47:13.026Z,31.74
2019-04-30T16:49:34.153Z,31.74
2019-04-30T16:52:04.492Z,31.74
2019-04-30T16:54:36.628Z,31.72
2019-04-30T16:57:11.635Z,31.73
2019-04-30T16:59:42.625Z,31.71
2019-04-30T17:02:17.016Z,31.71
2019-04-30T17:04:59.438Z,31.71
2019-04-30T17:07:30.549Z,31.72
2019-04-30T17:10:29.392Z,31.70
2019-04-30T17:13:31.484Z,31.73
2019-04-30T17:16:14.481Z,31.75
2019-04-30T17:18:45.104Z,31.75
2019-04-30T17:21:15.438Z,31.76
2019-04-30T17:23:45.723Z,31.76
2019-04-30T17:26:16.124Z,31.76
2019-04-30T17:28:49.889Z,31.78
2019-04-30T17:31:20.487Z,31.77
2019-04-30T17:33:50.811Z,31.77
2019-04-30T17:36:22.425Z,31.77
2019-04-30T17:38:53.703Z,31.78
2019-04-30T17:41:24.300Z,31.80
2019-04-30T17:43:55.074Z,31.80
2019-04-30T17:46:28.515Z,31.83
2019-04-30T17:48:59.367Z,31.85
2019-04-30T17:51:29.935Z,31.85
2019-04-30T17:54:16.171Z,31.85
2019-04-30T17:56:46.562Z,31.88
2019-04-30T17:59:16.853Z,31.89
2019-04-30T18:01:53.232Z,31.90
2019-04-30T18:04:23.691Z,31.91
2019-04-30T18:06:54.007Z,31.91
2019-04-30T18:09:29.710Z,31.91
2019-04-30T18:12:04.643Z,31.91
2019-04-30T18:14:36.988Z,31.92
2019-04-30T18:17:09.293Z,31.94
2019-04-30T18:19:49.736Z,31.94
2019-04-30T18:22:39.993Z,31.93
2019-04-30T18:25:35.506Z,31.91
2019-04-30T18:28:05.859Z,31.93
2019-04-30T18:30:40.702Z,31.93
2019-04-30T18:33:11.463Z,31.94
2019-04-30T18:35:48.543Z,31.94
2019-04-30T18:38:20.963Z,31.95
2019-04-30T18:40:51.772Z,31.96
2019-04-30T18:43:22.518Z,31.96
2019-04-30T18:45:52.902Z,31.98
2019-04-30T18:48:26.523Z,32.00
2019-04-30T18:50:57.012Z,32.02
2019-04-30T18:53:31.423Z,32.01
2019-04-30T18:56:04.609Z,32.01
2019-04-30T18:58:39.991Z,32.03
2019-04-30T19:01:09.230Z,32.02
2019-04-30T19:03:45.093Z,32.05
2019-04-30T19:06:26.252Z,32.07
2019-04-30T19:09:03.009Z,32.08
2019-04-30T19:12:02.653Z,32.06
2019-04-30T19:14:51.135Z,32.09
2019-04-30T19:17:43.198Z,32.11
2019-04-30T19:20:20.327Z,32.13
2019-04-30T19:22:52.334Z,32.16
2019-04-30T19:25:22.899Z,32.17
2019-04-30T19:27:53.163Z,32.17
2019-04-30T19:30:26.434Z,32.19
2019-04-30T19:32:58.851Z,32.22
2019-04-30T19:35:29.610Z,32.24
2019-04-30T19:38:02.743Z,32.27
2019-04-30T19:40:39.193Z,32.28
2019-04-30T19:43:16.675Z,32.32
2019-04-30T19:45:49.024Z,32.29
2019-04-30T19:48:20.822Z,32.32
2019-04-30T19:50:51.240Z,32.33
2019-04-30T19:53:22.425Z,32.36
2019-04-30T19:55:55.666Z,32.38
2019-04-30T19:58:43.628Z,32.41
2019-04-30T20:00:59.499Z,32.43
2019-04-30T20:03:34.799Z,32.46
2019-04-30T20:06:05.250Z,32.48
2019-04-30T20:08:39.653Z,32.53
2019-04-30T20:11:10.066Z,32.55
2019-04-30T20:13:40.558Z,32.56
2019-04-30T20:16:14.071Z,32.58
2019-04-30T20:18:44.507Z,32.60
2019-04-30T20:21:26.282Z,32.61
2019-04-30T20:23:50.040Z,32.65
2019-04-30T20:26:24.402Z,32.68
2019-04-30T20:28:54.657Z,32.70
2019-04-30T20:31:24.979Z,32.72
2019-04-30T20:34:01.422Z,32.75
2019-04-30T20:36:31.471Z,32.76
2019-04-30T20:39:19.202Z,32.81
2019-04-30T20:41:53.755Z,32.84
2019-04-30T20:44:24.340Z,32.87
2019-04-30T20:46:54.708Z,32.92
2019-04-30T20:49:24.980Z,32.92
2019-04-30T20:51:58.852Z,32.96
2019-04-30T20:54:29.306Z,33.01
2019-04-30T20:56:59.720Z,33.02
2019-04-30T20:59:31.867Z,33.03
2019-04-30T21:02:02.233Z,33.07
2019-04-30T21:04:36.022Z,33.11
2019-04-30T21:07:06.899Z,33.15
2019-04-30T21:09:37.299Z,33.21
2019-04-30T21:12:08.978Z,33.24
2019-04-30T21:14:40.642Z,33.29
2019-04-30T21:17:13.050Z,33.30
2019-04-30T21:19:43.612Z,33.36
2019-04-30T21:22:15.900Z,33.40
2019-04-30T21:24:46.312Z,33.43
2019-04-30T21:27:18.463Z,33.49
2019-04-30T21:29:49.367Z,33.52
2019-04-30T21:32:38.760Z,33.57
2019-04-30T21:35:26.779Z,33.59
2019-04-30T21:37:59.024Z,33.64
2019-04-30T21:40:29.874Z,33.66
2019-04-30T21:43:00.217Z,33.70
2019-04-30T21:45:31.559Z,33.71
2019-04-30T21:48:04.401Z,33.76
2019-04-30T21:50:39.692Z,33.77
2019-04-30T21:53:10.322Z,33.80
2019-04-30T21:55:46.090Z,33.84
2019-04-30T21:58:20.495Z,33.86
2019-04-30T22:01:10.823Z,33.88
2019-04-30T22:03:41.860Z,33.90
2019-04-30T22:06:12.179Z,33.93
2019-04-30T22:08:43.295Z,33.96
2019-04-30T22:11:13.689Z,34.00
2019-04-30T22:13:44.009Z,34.04
2019-04-30T22:16:14.738Z,34.07
2019-04-30T22:18:47.832Z,34.09
2019-04-30T22:21:18.138Z,34.15
2019-04-30T22:23:48.459Z,34.17
2019-04-30T22:26:18.752Z,34.19
2019-04-30T22:28:50.526Z,34.24
2019-04-30T22:31:22.184Z,34.27
2019-04-30T22:33:54.129Z,34.29
2019-04-30T22:36:32.292Z,34.33
2019-04-30T22:39:30.699Z,34.35
2019-04-30T22:42:29.745Z,34.38
2019-04-30T22:45:01.536Z,34.40
2019-04-30T22:47:32.153Z,34.46
2019-04-30T22:50:02.425Z,34.51
2019-04-30T22:52:32.808Z,34.54
2019-04-30T22:55:03.113Z,34.56
2019-04-30T22:57:33.425Z,34.61
2019-04-30T23:00:04.587Z,34.63
2019-04-30T23:02:52.147Z,34.64
2019-04-30T23:05:24.236Z,34.68
2019-04-30T23:08:01.858Z,34.72
2019-04-30T23:10:32.311Z,34.76
2019-04-30T23:13:02.712Z,34.81
2019-04-30T23:15:33.662Z,34.85
2019-04-30T23:18:04.033Z,34.85
2019-04-30T23:20:34.420Z,34.88
2019-04-30T23:23:04.795Z,34.91
2019-04-30T23:25:35.436Z,34.98
2019-04-30T23:28:07.743Z,35.00
2019-04-30T23:30:40.966Z,35.04
2019-04-30T23:33:16.052Z,35.08
2019-04-30T23:35:48.432Z,35.11
2019-04-30T23:38:18.706Z,35.16
2019-04-30T23:40:52.792Z,35.17
2019-04-30T23:43:23.095Z,35.20
2019-04-30T23:45:53.376Z,35.22
2019-04-30T23:48:24.566Z,35.25
2019-04-30T23:50:57.522Z,35.26
2019-04-30T23:53:28.159Z,35.30
2019-04-30T23:55:58.709Z,35.32
2019-04-30T23:58:29.145Z,35.36
